Time;durP1;ratioP1;P1;durP2;ratioP2;P2;SDS_P1;SDS_P2;PMS_P1;PMS_P2;Temp;Humidity;BMP_temperature;BMP_pressure;BME280_temperature;BME280_humidity;BME280_pressure;Samples;Min_cycle;Max_cycle;Signal;HPM_P1;HPM_P2
2024/01/31 00:01:38;;;;;;;37.17;19.42;;;;;;;-142.91;100.00;69424.03;5035752;28;20646;-76
2024/01/31 00:04:04;;;;;;;43.53;21.05;;;;;;;;;;5034813;28;20965;-79
2024/01/31 00:06:32;;;;;;;41.22;20.33;;;;;;;;;;5032435;28;20314;-73
2024/01/31 00:09:00;;;;;;;40.58;19.30;;;;;;;23.26;100.00;56616.03;5038908;28;20298;-74
2024/01/31 00:11:28;;;;;;;44.67;20.48;;;;;;;23.26;100.00;56616.03;5038914;28;20195;-75
2024/01/31 00:13:55;;;;;;;44.00;20.60;;;;;;;;;;5038224;28;20202;-73
2024/01/31 00:16:21;;;;;;;41.65;20.40;;;;;;;;;;5037781;28;20235;-73
2024/01/31 00:18:49;;;;;;;44.08;20.73;;;;;;;23.25;100.00;56616.03;5034918;28;20295;-76
2024/01/31 00:21:16;;;;;;;38.92;19.33;;;;;;;;;;5044861;28;20712;-72
2024/01/31 00:23:44;;;;;;;44.60;19.77;;;;;;;;;;5042187;28;20287;-71
2024/01/31 00:26:10;;;;;;;43.92;19.13;;;;;;;;;;5035559;28;20299;-71
2024/01/31 00:28:36;;;;;;;36.35;18.55;;;;;;;;;;5017923;28;20248;-72
2024/01/31 00:31:03;;;;;;;39.10;20.05;;;;;;;;;;5003690;28;20207;-73
2024/01/31 00:33:30;;;;;;;36.30;17.08;;;;;;;23.25;100.00;56616.03;5002086;28;20601;-71
2024/01/31 00:35:56;;;;;;;34.35;16.95;;;;;;;23.25;100.00;56616.03;5023710;28;20729;-71
2024/01/31 00:38:23;;;;;;;37.92;18.35;;;;;;;;;;5042697;28;20207;-73
2024/01/31 00:40:51;;;;;;;39.13;17.98;;;;;;;23.25;100.00;56616.03;5045744;28;20226;-70
2024/01/31 00:43:17;;;;;;;30.25;16.00;;;;;;;;;;5038897;28;20283;-71
2024/01/31 00:45:44;;;;;;;37.58;18.70;;;;;;;23.26;100.00;56616.03;5026849;28;21171;-72
2024/01/31 00:48:10;;;;;;;35.90;17.93;;;;;;;;;;4998666;28;20217;-72
2024/01/31 00:50:37;;;;;;;28.58;15.80;;;;;;;23.26;100.00;56616.03;5004569;28;20203;-74
2024/01/31 00:53:04;;;;;;;34.25;17.38;;;;;;;;;;5020414;28;20305;-74
2024/01/31 00:55:30;;;;;;;38.00;17.45;;;;;;;;;;5004263;28;20199;-77
2024/01/31 00:57:58;;;;;;;34.25;16.73;;;;;;;;;;5032416;28;20376;-73
2024/01/31 01:00:26;;;;;;;28.05;15.77;;;;;;;;;;5030438;28;20303;-73
2024/01/31 01:02:52;;;;;;;32.65;17.85;;;;;;;;;;5019454;28;20218;-72
2024/01/31 01:05:20;;;;;;;32.85;17.05;;;;;;;23.25;100.00;56616.03;5019173;28;20326;-73
2024/01/31 01:07:46;;;;;;;34.70;16.83;;;;;;;;;;5003563;28;20246;-74
2024/01/31 01:10:14;;;;;;;30.08;14.73;;;;;;;23.25;100.00;56616.03;5032091;28;20227;-74
2024/01/31 01:12:41;;;;;;;28.92;14.43;;;;;;;;;;5038351;28;20288;-73
2024/01/31 01:15:11;;;;;;;28.25;13.20;;;;;;;23.26;100.00;56616.03;5038735;28;20595;-74
2024/01/31 01:17:38;;;;;;;27.40;14.43;;;;;;;;;;5037114;28;20207;-74
2024/01/31 01:20:05;;;;;;;23.00;12.17;;;;;;;;;;5042069;28;20226;-74
2024/01/31 01:22:31;;;;;;;21.83;12.20;;;;;;;-142.91;100.00;56616.03;5039344;28;20225;-74
2024/01/31 01:24:58;;;;;;;21.58;11.95;;;;;;;;;;5038189;28;20713;-75
2024/01/31 01:27:24;;;;;;;21.75;12.63;;;;;;;;;;5034305;28;20305;-79
2024/01/31 01:29:51;;;;;;;20.55;12.15;;;;;;;23.25;100.00;56616.03;5034044;28;20799;-74
2024/01/31 01:32:18;;;;;;;23.65;13.70;;;;;;;;;;5036024;28;20285;-72
2024/01/31 01:34:46;;;;;;;30.70;12.63;;;;;;;23.26;100.00;56616.03;5040215;28;20286;-74
2024/01/31 01:37:13;;;;;;;21.45;12.02;;;;;;;23.26;100.00;56616.03;5036729;28;20306;-75
2024/01/31 01:39:39;;;;;;;27.30;12.03;;;;;;;;;;5037621;28;20282;-75
2024/01/31 01:42:05;;;;;;;28.80;13.30;;;;;;;;;;5033998;28;20294;-76
2024/01/31 01:44:34;;;;;;;22.98;11.50;;;;;;;23.26;100.00;56616.03;5039671;28;20306;-75
2024/01/31 01:47:02;;;;;;;24.65;13.07;;;;;;;23.25;100.00;56616.03;5035103;28;20306;-76
2024/01/31 01:49:33;;;;;;;22.05;12.52;;;;;;;23.25;100.00;56616.03;5032563;28;20381;-76
2024/01/31 01:52:00;;;;;;;26.63;14.30;;;;;;;;;;5040846;28;20238;-74
2024/01/31 01:54:26;;;;;;;33.58;14.43;;;;;;;;;;5039122;28;20297;-75
2024/01/31 01:56:53;;;;;;;20.98;13.02;;;;;;;;;;5043728;28;20776;-74
2024/01/31 01:59:20;;;;;;;27.90;14.00;;;;;;;;;;5037877;28;20294;-74
2024/01/31 02:01:47;;;;;;;31.57;14.00;;;;;;;23.25;100.00;56616.03;5040119;28;20295;-75
2024/01/31 02:04:12;;;;;;;30.60;13.47;;;;;;;;;;5039254;28;20748;-74
2024/01/31 02:06:40;;;;;;;23.60;12.65;;;;;;;;;;5035572;28;20236;-74
2024/01/31 02:09:07;;;;;;;27.17;13.88;;;;;;;23.25;100.00;56616.03;5040532;28;20294;-74
2024/01/31 02:11:35;;;;;;;24.58;12.77;;;;;;;;;;5037749;28;20378;-74
2024/01/31 02:14:02;;;;;;;27.58;14.13;;;;;;;;;;5037161;28;20290;-75
2024/01/31 02:16:28;;;;;;;23.92;13.75;;;;;;;;;;5039223;28;20223;-78
2024/01/31 02:18:55;;;;;;;26.25;13.30;;;;;;;23.26;100.00;56616.03;5044296;28;20283;-74
2024/01/31 02:21:23;;;;;;;34.22;13.02;;;;;;;;;;5042980;28;20298;-74
2024/01/31 02:23:51;;;;;;;24.23;12.23;;;;;;;;;;5037174;28;20295;-75
2024/01/31 02:26:17;;;;;;;28.20;12.82;;;;;;;23.26;100.00;56616.03;5037985;28;20310;-73
2024/01/31 02:28:44;;;;;;;26.05;13.30;;;;;;;;;;5040437;28;20289;-76
2024/01/31 02:31:10;;;;;;;23.80;12.25;;;;;;;23.25;100.00;56616.03;5041954;28;20313;-75
2024/01/31 02:33:37;;;;;;;24.15;11.75;;;;;;;23.25;100.00;56616.03;5037046;28;20318;-76
2024/01/31 02:36:04;;;;;;;28.70;12.35;;;;;;;23.26;100.00;56616.03;5036592;28;20282;-75
2024/01/31 02:38:31;;;;;;;30.35;12.95;;;;;;;23.25;100.00;56616.03;5035064;28;20265;-73
2024/01/31 02:40:59;;;;;;;21.95;11.82;;;;;;;;;;5038496;28;20711;-74
2024/01/31 02:43:25;;;;;;;26.55;14.00;;;;;;;;;;5037200;28;20453;-75
2024/01/31 02:45:51;;;;;;;23.08;11.95;;;;;;;;;;5038255;28;20322;-74
2024/01/31 02:48:18;;;;;;;26.60;14.57;;;;;;;;;;5038833;28;20290;-75
2024/01/31 02:50:45;;;;;;;31.83;13.52;;;;;;;;;;5040274;28;20728;-75
2024/01/31 02:53:11;;;;;;;26.73;13.30;;;;;;;;;;5038097;28;20295;-75
2024/01/31 02:55:37;;;;;;;35.70;16.90;;;;;;;;;;5039950;28;20751;-74
2024/01/31 02:58:06;;;;;;;32.53;15.70;;;;;;;;;;5040402;28;20235;-75
2024/01/31 03:00:32;;;;;;;33.55;15.70;;;;;;;23.25;100.00;56616.03;5035607;28;20283;-75
2024/01/31 03:02:59;;;;;;;30.85;14.68;;;;;;;23.26;100.00;56616.03;5038221;28;20286;-76
2024/01/31 03:05:25;;;;;;;35.40;14.85;;;;;;;23.25;100.00;56616.03;5038097;28;21488;-73
2024/01/31 03:07:52;;;;;;;29.23;15.13;;;;;;;23.25;100.00;56616.03;5033556;28;20315;-74
2024/01/31 03:10:18;;;;;;;25.77;12.98;;;;;;;;;;5034264;28;20286;-73
2024/01/31 03:12:46;;;;;;;27.55;13.65;;;;;;;23.25;100.00;56616.03;5040055;28;20245;-77
2024/01/31 03:15:14;;;;;;;26.42;12.63;;;;;;;23.25;100.00;56616.03;5040288;28;20630;-75
2024/01/31 03:17:41;;;;;;;18.30;11.35;;;;;;;-142.91;100.00;56616.03;5036903;28;20294;-75
2024/01/31 03:20:08;;;;;;;22.33;10.77;;;;;;;;;;5039104;28;20823;-76
2024/01/31 03:22:34;;;;;;;27.33;12.70;;;;;;;;;;5037157;28;20227;-74
2024/01/31 03:25:01;;;;;;;24.70;11.30;;;;;;;23.25;100.00;56616.03;5041223;28;20318;-72
2024/01/31 03:27:27;;;;;;;16.80;10.55;;;;;;;23.25;100.00;56616.03;5028686;28;20246;-73
2024/01/31 03:29:54;;;;;;;18.88;10.20;;;;;;;23.25;100.00;56616.03;5037709;28;20293;-74
2024/01/31 03:32:22;;;;;;;15.70;9.05;;;;;;;;;;5035802;28;20283;-74
2024/01/31 03:34:48;;;;;;;18.35;10.20;;;;;;;23.25;100.00;56616.03;5035783;28;20206;-73
2024/01/31 03:37:15;;;;;;;25.02;11.55;;;;;;;;;;5038570;28;20311;-75
2024/01/31 03:39:41;;;;;;;19.40;10.98;;;;;;;;;;5039807;28;20307;-73
2024/01/31 03:42:08;;;;;;;20.00;10.45;;;;;;;23.25;100.00;56616.03;5036674;28;21726;-72
2024/01/31 03:44:34;;;;;;;17.13;10.63;;;;;;;23.25;100.00;56616.03;5038957;28;20290;-73
2024/01/31 03:47:01;;;;;;;19.17;11.30;;;;;;;;;;5034992;28;20306;-73
2024/01/31 03:49:29;;;;;;;18.55;10.30;;;;;;;;;;5040220;28;20292;-72
2024/01/31 03:51:55;;;;;;;21.75;11.52;;;;;;;-142.91;100.00;56616.03;5037985;28;20621;-75
2024/01/31 03:54:22;;;;;;;21.52;11.00;;;;;;;23.25;100.00;56616.03;5038168;28;20241;-74
2024/01/31 03:56:49;;;;;;;37.60;19.25;;;;;;;23.26;100.00;56616.03;5039155;28;20230;-73
2024/01/31 03:59:15;;;;;;;35.38;17.23;;;;;;;;;;5037094;28;20211;-73
2024/01/31 04:01:41;;;;;;;22.88;12.15;;;;;;;;;;5040160;28;20310;-72
2024/01/31 04:04:08;;;;;;;23.05;12.45;;;;;;;23.25;100.00;56616.03;5041567;28;20330;-72
2024/01/31 04:06:36;;;;;;;21.05;12.02;;;;;;;23.25;100.00;56616.03;5037978;28;20233;-73
2024/01/31 04:09:05;;;;;;;20.65;11.80;;;;;;;-142.91;100.00;56616.03;5039884;28;20741;-73
2024/01/31 04:11:34;;;;;;;25.17;13.80;;;;;;;;;;5039828;28;20205;-73
2024/01/31 04:14:01;;;;;;;27.95;13.38;;;;;;;23.25;100.00;56616.03;5039451;28;20278;-73
2024/01/31 04:16:27;;;;;;;25.60;12.93;;;;;;;23.26;100.00;56616.03;5037772;28;20660;-73
2024/01/31 04:18:54;;;;;;;26.30;13.23;;;;;;;23.25;100.00;56616.03;5038927;28;20241;-72
2024/01/31 04:21:22;;;;;;;21.67;12.23;;;;;;;;;;5035862;28;20303;-74
2024/01/31 04:23:50;;;;;;;21.77;11.43;;;;;;;23.25;100.00;56616.03;5037118;28;20731;-72
2024/01/31 04:26:17;;;;;;;20.90;11.35;;;;;;;23.25;100.00;56616.03;5037709;28;20671;-71
2024/01/31 04:28:43;;;;;;;31.77;13.35;;;;;;;;;;5037831;28;20283;-72
2024/01/31 04:31:13;;;;;;;20.20;11.25;;;;;;;23.25;100.00;56616.03;5038546;28;20299;-74
2024/01/31 04:33:39;;;;;;;23.20;13.32;;;;;;;23.25;100.00;56616.03;5040305;28;20207;-73
2024/01/31 04:36:06;;;;;;;23.03;13.27;;;;;;;23.26;100.00;56616.03;5041502;28;20245;-73
2024/01/31 04:38:33;;;;;;;25.92;12.48;;;;;;;;;;5040602;28;20203;-73
2024/01/31 04:41:01;;;;;;;25.67;11.85;;;;;;;23.26;100.00;56616.03;5045298;28;20215;-74
2024/01/31 04:43:27;;;;;;;27.57;12.63;;;;;;;23.26;100.00;56616.03;5041461;28;20295;-74
2024/01/31 04:45:54;;;;;;;23.10;11.30;;;;;;;;;;5042974;28;20824;-73
2024/01/31 04:48:21;;;;;;;24.83;13.87;;;;;;;23.26;100.00;56616.03;5042786;28;20195;-74
2024/01/31 04:50:47;;;;;;;28.17;12.55;;;;;;;;;;5040350;28;20282;-73
2024/01/31 04:53:14;;;;;;;23.70;12.60;;;;;;;23.25;100.00;56616.03;5044936;28;20302;-73
2024/01/31 04:55:40;;;;;;;32.40;13.77;;;;;;;23.25;100.00;56616.03;5042303;28;20298;-73
2024/01/31 04:58:08;;;;;;;35.17;13.80;;;;;;;23.25;100.00;56616.03;5041720;28;20278;-73
2024/01/31 05:00:35;;;;;;;32.90;12.30;;;;;;;;;;5041013;28;20731;-74
2024/01/31 05:03:01;;;;;;;24.77;12.05;;;;;;;;;;5044483;28;20208;-74
2024/01/31 05:05:28;;;;;;;18.63;11.00;;;;;;;;;;5043261;28;20315;-74
2024/01/31 05:07:54;;;;;;;20.13;12.07;;;;;;;23.25;100.00;56616.03;5041508;28;20302;-75
2024/01/31 05:10:21;;;;;;;27.25;13.05;;;;;;;;;;5039530;28;20744;-74
2024/01/31 05:12:47;;;;;;;33.63;14.83;;;;;;;;;;5040024;28;20200;-74
2024/01/31 05:15:15;;;;;;;31.93;14.30;;;;;;;23.26;100.00;56616.03;5040979;28;20661;-73
2024/01/31 05:17:42;;;;;;;27.27;13.03;;;;;;;23.25;100.00;56616.03;5041626;28;20207;-73
2024/01/31 05:20:09;;;;;;;28.57;14.07;;;;;;;-142.91;100.00;56616.03;5040597;28;20287;-75
2024/01/31 05:22:36;;;;;;;41.37;18.70;;;;;;;;;;5041106;28;20231;-73
2024/01/31 05:25:02;;;;;;;27.93;16.33;;;;;;;;;;5040060;28;20290;-73
2024/01/31 05:27:29;;;;;;;36.30;16.30;;;;;;;23.25;100.00;56616.03;5041510;28;20223;-76
2024/01/31 05:29:55;;;;;;;34.63;17.10;;;;;;;;;;5044046;28;20756;-74
2024/01/31 05:32:24;;;;;;;41.10;17.80;;;;;;;23.25;100.00;56616.03;5044981;28;20286;-76
2024/01/31 05:34:51;;;;;;;35.73;17.43;;;;;;;-142.91;100.00;56616.03;5039593;28;20203;-74
2024/01/31 05:37:18;;;;;;;42.83;18.63;;;;;;;23.25;100.00;56616.03;5039381;28;20295;-73
2024/01/31 05:39:45;;;;;;;33.92;17.27;;;;;;;23.25;100.00;56616.03;5040463;28;20226;-74
2024/01/31 05:42:11;;;;;;;34.10;17.95;;;;;;;-142.91;100.00;56616.03;5037637;28;20290;-74
2024/01/31 05:44:38;;;;;;;37.97;18.87;;;;;;;23.25;100.00;56616.03;5035072;28;20282;-73
2024/01/31 05:47:04;;;;;;;34.75;17.77;;;;;;;23.25;100.00;56616.03;5039913;28;20313;-73
2024/01/31 05:49:32;;;;;;;28.27;15.30;;;;;;;23.25;100.00;56616.03;5038713;28;20298;-74
2024/01/31 05:51:59;;;;;;;27.63;14.35;;;;;;;;;;5040487;28;20260;-73
2024/01/31 05:54:26;;;;;;;27.90;14.77;;;;;;;23.26;100.00;56616.03;5039115;28;20294;-73
2024/01/31 05:56:53;;;;;;;33.47;15.82;;;;;;;23.26;100.00;56616.03;5038872;28;20660;-74
2024/01/31 05:59:19;;;;;;;26.65;13.00;;;;;;;25.85;100.00;60815.69;5037446;28;20257;-74
2024/01/31 06:01:46;;;;;;;19.45;13.02;;;;;;;24.55;100.00;56616.03;5039338;28;20330;-76
2024/01/31 06:04:13;;;;;;;23.20;13.93;;;;;;;23.25;100.00;56616.03;5039130;28;20755;-74
2024/01/31 06:06:41;;;;;;;22.20;12.80;;;;;;;;;;5037407;28;20983;-76
2024/01/31 06:09:08;;;;;;;20.35;12.52;;;;;;;23.25;100.00;56616.03;5037359;28;20200;-74
2024/01/31 06:11:35;;;;;;;21.90;12.27;;;;;;;23.25;100.00;56616.03;5044256;28;20747;-74
2024/01/31 06:14:01;;;;;;;26.88;12.30;;;;;;;;;;5041181;28;20302;-77
2024/01/31 06:16:29;;;;;;;23.77;13.93;;;;;;;23.25;100.00;56616.03;5038553;28;20736;-75
2024/01/31 06:18:55;;;;;;;25.50;12.50;;;;;;;;;;5040490;28;20874;-76
2024/01/31 06:21:21;;;;;;;30.67;13.80;;;;;;;;;;5040387;28;20242;-77
2024/01/31 06:23:49;;;;;;;27.80;16.27;;;;;;;;;;5037736;28;20765;-75
2024/01/31 06:26:16;;;;;;;24.08;16.67;;;;;;;;;;5038960;28;20309;-76
2024/01/31 06:28:42;;;;;;;28.13;14.88;;;;;;;;;;5036365;28;20278;-74
2024/01/31 06:31:16;;;;;;;26.33;15.40;;;;;;;;;;5040738;28;20195;-74
2024/01/31 06:33:42;;;;;;;33.47;14.57;;;;;;;;;;5038397;28;20200;-75
2024/01/31 06:36:09;;;;;;;26.08;14.43;;;;;;;;;;5039677;28;20283;-74
2024/01/31 06:38:35;;;;;;;26.13;15.70;;;;;;;;;;5039345;28;20318;-73
2024/01/31 06:41:03;;;;;;;28.95;16.10;;;;;;;-142.91;100.00;56616.03;5042800;28;20290;-73
2024/01/31 06:43:30;;;;;;;27.10;15.68;;;;;;;;;;5038835;28;20287;-73
2024/01/31 06:45:57;;;;;;;31.92;16.73;;;;;;;;;;5040150;28;20203;-73
2024/01/31 06:48:24;;;;;;;32.58;16.42;;;;;;;;;;5037936;28;20647;-74
2024/01/31 06:50:50;;;;;;;27.67;15.88;;;;;;;;;;5036933;28;20722;-72
2024/01/31 06:53:17;;;;;;;29.50;16.83;;;;;;;;;;5037708;28;20586;-73
2024/01/31 06:55:44;;;;;;;33.10;18.10;;;;;;;;;;5041608;28;20199;-73
2024/01/31 06:58:11;;;;;;;28.45;17.05;;;;;;;;;;5039980;28;20302;-73
2024/01/31 07:00:38;;;;;;;28.70;17.75;;;;;;;;;;5037836;28;20282;-74
2024/01/31 07:03:04;;;;;;;34.70;17.95;;;;;;;;;;5040031;28;20288;-75
2024/01/31 07:05:31;;;;;;;35.88;17.80;;;;;;;;;;5039586;28;20659;-75
2024/01/31 07:07:57;;;;;;;28.92;16.73;;;;;;;;;;5036457;28;20644;-73
2024/01/31 07:10:23;;;;;;;44.83;17.95;;;;;;;;;;5038874;28;20289;-73
2024/01/31 07:12:52;;;;;;;43.28;23.92;;;;;;;;;;5038936;28;20649;-74
2024/01/31 07:15:20;;;;;;;42.75;23.45;;;;;;;;;;5037910;28;20202;-74
2024/01/31 07:17:47;;;;;;;39.88;20.83;;;;;;;;;;5040911;28;20302;-74
2024/01/31 07:20:13;;;;;;;50.20;22.73;;;;;;;;;;5037632;28;20207;-72
2024/01/31 07:22:40;;;;;;;39.83;20.80;;;;;;;-142.91;100.00;56616.03;5035684;28;20226;-73
2024/01/31 07:25:10;;;;;;;32.67;19.52;;;;;;;;;;5035937;28;20678;-72
2024/01/31 07:27:38;;;;;;;33.58;19.33;;;;;;;;;;5039708;28;20608;-72
2024/01/31 07:30:04;;;;;;;32.40;19.73;;;;;;;;;;5040644;28;20206;-74
2024/01/31 07:32:32;;;;;;;27.02;17.38;;;;;;;;;;5039996;28;20286;-71
2024/01/31 07:34:58;;;;;;;32.35;18.92;;;;;;;;;;5038884;28;20295;-71
2024/01/31 07:37:25;;;;;;;36.38;21.25;;;;;;;;;;5039984;28;20290;-73
2024/01/31 07:39:52;;;;;;;48.65;22.85;;;;;;;;;;5039961;28;20329;-72
2024/01/31 07:42:19;;;;;;;46.47;26.50;;;;;;;;;;5036614;28;20211;-72
2024/01/31 07:44:45;;;;;;;56.13;27.10;;;;;;;;;;5039582;28;20349;-74
2024/01/31 07:47:11;;;;;;;46.00;25.35;;;;;;;;;;5037923;28;20805;-73
2024/01/31 07:49:41;;;;;;;42.63;25.48;;;;;;;;;;5036752;28;20285;-72
2024/01/31 07:52:07;;;;;;;41.63;25.08;;;;;;;;;;5036654;28;20752;-72
2024/01/31 07:54:34;;;;;;;50.22;26.02;;;;;;;64.84;100.00;56616.03;5040907;28;20290;-72
2024/01/31 07:57:00;;;;;;;44.97;26.30;;;;;;;;;;5036968;28;20283;-72
2024/01/31 07:59:27;;;;;;;41.05;25.80;;;;;;;;;;5038865;28;20234;-73
2024/01/31 08:01:53;;;;;;;45.72;27.17;;;;;;;;;;5034896;28;20298;-72
2024/01/31 08:04:19;;;;;;;41.50;25.80;;;;;;;;;;5036340;28;20295;-71
2024/01/31 08:06:47;;;;;;;43.17;26.70;;;;;;;-142.91;100.00;56616.03;5036591;28;20414;-73
2024/01/31 08:09:15;;;;;;;55.50;28.80;;;;;;;23.26;100.00;56616.03;5037619;28;20223;-73
2024/01/31 08:11:41;;;;;;;51.63;27.70;;;;;;;;;;5042275;28;20724;-72
2024/01/31 08:14:08;;;;;;;46.90;25.65;;;;;;;;;;5041239;28;20636;-73
2024/01/31 08:16:34;;;;;;;50.88;26.40;;;;;;;;;;5040074;28;20238;-71
2024/01/31 08:19:01;;;;;;;45.42;24.42;;;;;;;;;;5039844;28;20295;-71
2024/01/31 08:21:27;;;;;;;58.38;27.75;;;;;;;23.25;100.00;56616.03;5041256;28;20310;-72
2024/01/31 08:23:55;;;;;;;41.92;22.00;;;;;;;;;;5041331;28;20200;-72
2024/01/31 08:26:22;;;;;;;38.35;21.35;;;;;;;;;;5044068;28;20290;-70
2024/01/31 08:28:48;;;;;;;40.83;20.95;;;;;;;-142.91;100.00;56616.03;5045237;28;20340;-71
2024/01/31 08:31:15;;;;;;;41.35;22.80;;;;;;;;;;5042550;28;20229;-72
2024/01/31 08:33:41;;;;;;;35.65;21.65;;;;;;;;;;5042322;28;20290;-72
2024/01/31 08:36:09;;;;;;;27.67;17.55;;;;;;;;;;5044233;28;20286;-71
2024/01/31 08:38:37;;;;;;;34.60;19.02;;;;;;;106.45;100.00;56616.03;5043684;28;20279;-73
2024/01/31 08:41:06;;;;;;;38.45;20.92;;;;;;;;;;5040223;28;20325;-71
2024/01/31 08:43:32;;;;;;;35.90;21.33;;;;;;;;;;5043489;28;20286;-72
2024/01/31 08:45:58;;;;;;;39.05;21.25;;;;;;;;;;5043481;28;20891;-73
2024/01/31 08:48:25;;;;;;;41.88;21.00;;;;;;;-142.91;100.00;56616.03;5042931;28;20313;-73
2024/01/31 08:50:51;;;;;;;31.80;20.77;;;;;;;;;;5042443;28;20702;-71
2024/01/31 08:53:18;;;;;;;39.22;20.52;;;;;;;-142.91;100.00;56616.03;5040725;28;20298;-71
2024/01/31 08:55:44;;;;;;;39.42;21.05;;;;;;;;;;5037127;28;20757;-73
2024/01/31 08:58:12;;;;;;;35.60;21.02;;;;;;;;;;5037547;28;20239;-71
2024/01/31 09:00:39;;;;;;;37.15;20.98;;;;;;;;;;5039746;28;20289;-73
2024/01/31 09:03:05;;;;;;;28.80;19.23;;;;;;;;;;5045592;28;20685;-72
2024/01/31 09:05:31;;;;;;;38.88;19.10;;;;;;;;;;5040946;28;20652;-72
2024/01/31 09:07:59;;;;;;;31.75;19.55;;;;;;;;;;5038073;28;20327;-72
2024/01/31 09:10:26;;;;;;;34.55;18.52;;;;;;;;;;5041044;28;20214;-72
2024/01/31 09:12:53;;;;;;;28.95;18.13;;;;;;;;;;5040211;28;20223;-71
2024/01/31 09:15:21;;;;;;;28.02;16.17;;;;;;;;;;5039259;28;20287;-72
2024/01/31 09:17:48;;;;;;;32.15;17.73;;;;;;;;;;5036812;28;20297;-71
2024/01/31 09:20:14;;;;;;;30.67;17.13;;;;;;;;;;5037679;28;20291;-72
2024/01/31 09:22:41;;;;;;;32.17;17.25;;;;;;;;;;5038663;28;20306;-71
2024/01/31 09:25:07;;;;;;;31.00;17.60;;;;;;;;;;5043321;28;20306;-73
2024/01/31 09:27:34;;;;;;;37.10;19.27;;;;;;;;;;5039074;28;20314;-73
2024/01/31 09:30:00;;;;;;;34.65;19.92;;;;;;;;;;5042704;28;20293;-72
2024/01/31 09:32:28;;;;;;;51.00;20.75;;;;;;;;;;5041825;28;20291;-72
2024/01/31 09:34:54;;;;;;;37.25;20.05;;;;;;;;;;5035478;28;20290;-71
2024/01/31 09:37:21;;;;;;;38.53;19.27;;;;;;;;;;5038825;28;20195;-72
2024/01/31 09:39:48;;;;;;;35.42;21.13;;;;;;;-142.91;100.00;56616.03;5035969;28;20200;-72
2024/01/31 09:42:15;;;;;;;37.20;20.25;;;;;;;;;;5036839;28;20235;-72
2024/01/31 09:44:41;;;;;;;34.10;21.00;;;;;;;;;;5039976;28;20513;-71
2024/01/31 09:47:09;;;;;;;28.55;18.98;;;;;;;;;;5039524;28;20227;-72
2024/01/31 09:49:38;;;;;;;42.28;21.17;;;;;;;-142.91;100.00;56616.03;5039743;28;20203;-71
2024/01/31 09:52:06;;;;;;;31.35;19.23;;;;;;;;;;5040703;28;20226;-71
2024/01/31 09:54:32;;;;;;;37.50;19.92;;;;;;;;;;5039770;28;20281;-72
2024/01/31 09:56:59;;;;;;;35.53;19.90;;;;;;;;;;5034710;28;20290;-72
2024/01/31 09:59:25;;;;;;;44.10;19.23;;;;;;;;;;5035230;28;20282;-72
2024/01/31 10:01:53;;;;;;;45.47;18.25;;;;;;;;;;5034239;28;20321;-72
2024/01/31 10:04:19;;;;;;;35.15;19.08;;;;;;;;;;5034023;28;20213;-72
2024/01/31 10:06:47;;;;;;;32.22;18.90;;;;;;;;;;5036637;28;20317;-72
2024/01/31 10:09:14;;;;;;;35.55;18.42;;;;;;;;;;5022552;28;20294;-72
2024/01/31 10:11:45;;;;;;;30.75;17.77;;;;;;;;;;5006440;28;20218;-73
2024/01/31 10:14:12;;;;;;;30.52;18.27;;;;;;;;;;5002544;28;20203;-74
2024/01/31 10:16:39;;;;;;;31.05;17.98;;;;;;;;;;5023793;28;20306;-72
2024/01/31 10:19:05;;;;;;;37.00;17.85;;;;;;;;;;5026643;28;20314;-74
2024/01/31 10:21:33;;;;;;;29.50;18.13;;;;;;;23.25;100.00;56616.03;5002832;28;20720;-72
2024/01/31 10:24:02;;;;;;;31.50;17.98;;;;;;;;;;5011482;28;20295;-72
2024/01/31 10:26:29;;;;;;;32.75;18.75;;;;;;;;;;5027549;28;20637;-72
2024/01/31 10:28:56;;;;;;;42.58;19.00;;;;;;;;;;5033355;28;20325;-71
2024/01/31 10:31:22;;;;;;;32.33;18.92;;;;;;;-142.91;100.00;56616.03;5035532;28;20291;-73
2024/01/31 10:33:50;;;;;;;34.80;19.60;;;;;;;;;;5022597;28;20508;-69
2024/01/31 10:36:17;;;;;;;31.02;18.40;;;;;;;;;;5029054;28;20283;-69
2024/01/31 10:38:43;;;;;;;31.60;17.15;;;;;;;;;;5018342;28;20789;-71
2024/01/31 10:41:13;;;;;;;36.25;18.55;;;;;;;;;;4991214;28;20346;-69
2024/01/31 10:43:41;;;;;;;37.83;19.17;;;;;;;;;;4993088;28;20202;-71
2024/01/31 10:46:07;;;;;;;34.13;18.20;;;;;;;;;;4993108;28;20207;-73
2024/01/31 10:48:34;;;;;;;34.88;18.60;;;;;;;;;;4995378;28;20223;-69
2024/01/31 10:51:02;;;;;;;30.23;18.25;;;;;;;-142.91;100.00;56616.03;4991117;28;20948;-71
2024/01/31 10:53:30;;;;;;;31.48;17.55;;;;;;;;;;4993198;28;20603;-74
2024/01/31 10:55:57;;;;;;;41.55;16.55;;;;;;;;;;5010473;28;20206;-70
2024/01/31 10:58:26;;;;;;;32.13;18.38;;;;;;;;;;5019755;28;20775;-70
2024/01/31 11:00:53;;;;;;;33.53;17.25;;;;;;;;;;4992408;28;20273;-70
2024/01/31 11:03:19;;;;;;;32.40;18.27;;;;;;;;;;5000250;28;20286;-71
2024/01/31 11:05:47;;;;;;;29.40;18.05;;;;;;;;;;5020915;28;20298;-71
2024/01/31 11:08:17;;;;;;;30.20;18.65;;;;;;;;;;4998414;28;20249;-71
2024/01/31 11:10:44;;;;;;;36.88;18.90;;;;;;;;;;4996987;28;20221;-71
2024/01/31 11:13:10;;;;;;;31.50;17.92;;;;;;;;;;4995899;28;21165;-70
2024/01/31 11:15:38;;;;;;;39.17;19.75;;;;;;;;;;4994494;28;20214;-72
2024/01/31 11:18:09;;;;;;;34.25;17.48;;;;;;;;;;5014469;28;20289;-72
2024/01/31 11:20:36;;;;;;;43.65;19.10;;;;;;;;;;5020252;28;20204;-69
2024/01/31 11:23:05;;;;;;;33.75;18.08;;;;;;;;;;5035808;28;20210;-71
2024/01/31 11:25:32;;;;;;;36.95;18.38;;;;;;;;;;5032722;28;20210;-71
2024/01/31 11:27:59;;;;;;;46.42;18.85;;;;;;;;;;5035341;28;20322;-72
2024/01/31 11:30:25;;;;;;;47.20;19.90;;;;;;;;;;5040452;28;20290;-75
2024/01/31 11:32:53;;;;;;;40.55;17.80;;;;;;;;;;5049498;28;20289;-75
2024/01/31 11:35:20;;;;;;;35.15;19.15;;;;;;;;;;5044769;28;20290;-76
2024/01/31 11:37:46;;;;;;;39.60;17.92;;;;;;;;;;5048406;28;20191;-74
2024/01/31 11:40:13;;;;;;;36.10;17.55;;;;;;;;;;5041410;28;20307;-76
2024/01/31 11:42:39;;;;;;;29.52;17.73;;;;;;;;;;5049485;28;20218;-75
2024/01/31 11:45:07;;;;;;;27.77;17.17;;;;;;;-142.91;100.00;56616.03;5046325;28;20651;-75
2024/01/31 11:47:33;;;;;;;33.35;18.02;;;;;;;;;;5054188;28;20227;-74
2024/01/31 11:50:03;;;;;;;27.85;17.38;;;;;;;;;;5042813;28;20291;-75
2024/01/31 11:52:29;;;;;;;29.92;17.40;;;;;;;;;;5040676;28;20199;-74
2024/01/31 11:54:56;;;;;;;33.15;17.58;;;;;;;23.33;100.00;56616.03;5053758;28;20230;-75
2024/01/31 11:57:22;;;;;;;34.67;16.88;;;;;;;;;;5053881;28;20260;-76
2024/01/31 11:59:50;;;;;;;34.15;17.20;;;;;;;;;;5041679;28;20231;-74
2024/01/31 12:02:17;;;;;;;26.23;16.83;;;;;;;;;;5047552;28;20208;-74
2024/01/31 12:04:51;;;;;;;32.08;15.77;;;;;;;-142.91;100.00;56616.03;5036035;28;20634;-75
2024/01/31 12:07:19;;;;;;;29.70;15.73;;;;;;;;;;5040024;28;20248;-75
2024/01/31 12:09:45;;;;;;;29.23;15.70;;;;;;;;;;5039520;28;20528;-75
2024/01/31 12:12:12;;;;;;;35.80;16.05;;;;;;;;;;5051938;28;20310;-73
2024/01/31 12:14:39;;;;;;;45.40;15.88;;;;;;;;;;5039962;28;20748;-76
2024/01/31 12:17:18;;;;;;;31.55;14.77;;;;;;;;;;5051635;28;20790;-74
2024/01/31 12:19:44;;;;;;;34.22;15.90;;;;;;;;;;5041067;28;20285;-75
2024/01/31 12:22:12;;;;;;;37.75;17.08;;;;;;;;;;5051707;28;20305;-76
2024/01/31 12:24:39;;;;;;;32.83;15.55;;;;;;;;;;5049236;28;20195;-75
2024/01/31 12:27:06;;;;;;;26.20;15.95;;;;;;;;;;5044626;28;20293;-74
2024/01/31 12:29:32;;;;;;;38.78;16.65;;;;;;;-142.91;100.00;56616.03;5040638;28;20235;-73
2024/01/31 12:31:59;;;;;;;45.47;16.52;;;;;;;;;;5043572;28;20295;-75
2024/01/31 12:34:25;;;;;;;37.97;16.98;;;;;;;;;;5050456;28;20987;-75
2024/01/31 12:36:52;;;;;;;29.80;16.40;;;;;;;;;;5051888;28;20293;-73
2024/01/31 12:39:20;;;;;;;31.98;17.17;;;;;;;;;;5053578;28;20278;-74
2024/01/31 12:41:48;;;;;;;36.15;16.13;;;;;;;;;;5053192;28;20261;-74
2024/01/31 12:44:14;;;;;;;31.23;16.08;;;;;;;;;;5052808;28;20291;-75
2024/01/31 12:46:41;;;;;;;29.02;15.40;;;;;;;;;;5052784;28;20655;-75
2024/01/31 12:49:07;;;;;;;37.75;16.52;;;;;;;;;;5051625;28;20309;-74
2024/01/31 12:51:34;;;;;;;37.47;18.52;;;;;;;;;;5052819;28;20286;-73
2024/01/31 12:53:59;;;;;;;26.08;16.85;;;;;;;;;;5039492;28;20234;-74
2024/01/31 12:56:25;;;;;;;37.30;19.63;;;;;;;;;;5053330;28;20238;-74
2024/01/31 12:58:55;;;;;;;44.55;18.75;;;;;;;;;;5040724;28;20764;-74
2024/01/31 13:01:22;;;;;;;29.38;17.83;;;;;;;;;;5041393;28;20294;-74
2024/01/31 13:03:48;;;;;;;48.25;19.13;;;;;;;;;;5053023;28;20564;-75
2024/01/31 13:06:15;;;;;;;39.30;20.55;;;;;;;;;;5052842;28;20322;-75